Time;durP1;ratioP1;P1;durP2;ratioP2;P2;SDS_P1;SDS_P2;PMS_P1;PMS_P2;Temp;Humidity;BMP_temperature;BMP_pressure;BME280_temperature;BME280_humidity;BME280_pressure;Samples;Min_cycle;Max_cycle;Signal;HPM_P1;HPM_P2
2022/06/27 00:00:55;;;;;;;11.98;9.93;;;18.00;99.90;;;;;;5037561;28;20040;-63
2022/06/27 00:03:21;;;;;;;10.32;9.23;;;18.00;99.90;;;;;;5051634;28;20040;-63
2022/06/27 00:05:47;;;;;;;10.38;9.30;;;18.10;99.90;;;;;;5055824;28;20051;-63
2022/06/27 00:08:12;;;;;;;10.52;9.43;;;18.10;99.90;;;;;;5050730;28;20037;-63
2022/06/27 00:10:40;;;;;;;13.13;10.63;;;18.10;99.90;;;;;;5063683;28;20082;-63
2022/06/27 00:13:06;;;;;;;14.85;11.82;;;18.20;99.90;;;;;;5050720;28;20044;-63
2022/06/27 00:15:32;;;;;;;12.35;11.15;;;18.10;99.90;;;;;;5050095;28;20060;-63
2022/06/27 00:17:58;;;;;;;11.50;10.27;;;18.10;99.90;;;;;;5069201;28;20040;-63
2022/06/27 00:20:24;;;;;;;11.38;10.05;;;18.10;99.90;;;;;;5050491;28;20040;-63
2022/06/27 00:22:51;;;;;;;10.32;9.43;;;18.10;99.90;;;;;;5068024;28;20056;-63
2022/06/27 00:25:17;;;;;;;12.05;10.57;;;18.00;99.90;;;;;;5056287;28;20044;-63
2022/06/27 00:27:42;;;;;;;11.05;9.93;;;18.00;99.90;;;;;;5050582;28;20052;-63
2022/06/27 00:30:10;;;;;;;11.85;10.60;;;18.00;99.90;;;;;;5056261;28;20104;-63
2022/06/27 00:32:36;;;;;;;12.15;10.85;;;18.00;99.90;;;;;;5049931;28;20052;-63
2022/06/27 00:35:04;;;;;;;13.55;12.13;;;17.90;99.90;;;;;;5049887;28;20053;-63
2022/06/27 00:37:30;;;;;;;13.57;11.82;;;18.00;99.90;;;;;;5048252;28;20053;-63
2022/06/27 00:39:55;;;;;;;11.18;10.07;;;18.00;99.90;;;;;;5056674;28;20060;-63
2022/06/27 00:42:21;;;;;;;11.65;10.60;;;18.00;99.90;;;;;;5047324;28;20053;-63
2022/06/27 00:44:47;;;;;;;12.02;10.82;;;18.00;99.90;;;;;;5068236;28;20053;-64
2022/06/27 00:47:14;;;;;;;12.75;11.52;;;17.90;99.90;;;;;;5031390;28;20516;-63
2022/06/27 00:49:40;;;;;;;13.35;12.00;;;17.90;99.90;;;;;;5049643;28;20736;-63
2022/06/27 00:52:09;;;;;;;14.15;12.13;;;17.90;99.90;;;;;;5054244;28;20481;-63
2022/06/27 00:54:37;;;;;;;14.88;12.30;;;18.00;99.90;;;;;;5052573;28;20056;-63
2022/06/27 00:57:03;;;;;;;13.50;11.73;;;18.00;99.90;;;;;;5032727;28;20051;-63
2022/06/27 00:59:29;;;;;;;13.70;12.20;;;17.90;99.90;;;;;;5051254;28;20051;-63
2022/06/27 01:01:55;;;;;;;15.38;12.45;;;17.90;99.90;;;;;;5050291;28;20120;-63
2022/06/27 01:04:21;;;;;;;13.57;11.77;;;18.00;99.90;;;;;;5073728;28;20049;-63
2022/06/27 01:06:50;;;;;;;13.80;11.90;;;17.90;99.90;;;;;;5055970;28;20048;-63
2022/06/27 01:09:15;;;;;;;16.88;12.70;;;17.80;99.90;;;;;;5055787;28;20057;-63
2022/06/27 01:11:41;;;;;;;15.23;12.93;;;17.80;99.90;;;;;;5075591;28;20045;-63
2022/06/27 01:14:08;;;;;;;13.85;12.23;;;17.80;99.90;;;;;;5072400;28;20057;-63
2022/06/27 01:16:35;;;;;;;15.38;12.55;;;17.80;99.90;;;;;;5075380;28;20041;-63
2022/06/27 01:19:02;;;;;;;12.20;10.90;;;17.80;99.90;;;;;;5042973;28;20460;-63
2022/06/27 01:21:32;;;;;;;11.60;10.50;;;17.80;99.90;;;;;;5066611;28;20037;-64
2022/06/27 01:23:58;;;;;;;12.70;11.40;;;17.80;99.90;;;;;;5048521;28;20049;-63
2022/06/27 01:26:23;;;;;;;14.52;12.77;;;17.90;99.90;;;;;;5049428;28;20033;-63
2022/06/27 01:28:49;;;;;;;14.77;13.20;;;17.80;99.90;;;;;;5055297;28;20531;-63
2022/06/27 01:31:16;;;;;;;14.63;12.98;;;18.00;99.90;;;;;;5056498;28;20094;-63
2022/06/27 01:33:42;;;;;;;13.25;11.77;;;17.90;99.90;;;;;;5064934;28;20052;-63
2022/06/27 01:38:53;;;;;;;13.38;11.80;;;17.80;99.90;;;;;;5043933;28;20052;-63
2022/06/27 01:41:19;;;;;;;14.80;13.23;;;17.80;99.90;;;;;;5054995;28;20053;-63
2022/06/27 01:43:46;;;;;;;14.93;13.32;;;17.80;99.90;;;;;;5062357;28;20045;-64
2022/06/27 01:46:12;;;;;;;16.45;13.38;;;17.90;99.90;;;;;;5073706;28;20076;-63
2022/06/27 01:48:41;;;;;;;16.10;14.50;;;17.70;99.90;;;;;;5067731;28;20043;-63
2022/06/27 01:51:09;;;;;;;15.25;13.30;;;17.80;99.90;;;;;;5076287;28;20100;-63
2022/06/27 01:53:36;;;;;;;14.98;13.35;;;17.70;99.90;;;;;;5049370;28;20049;-63
2022/06/27 01:56:03;;;;;;;15.15;13.48;;;17.90;99.90;;;;;;5052577;28;20049;-63
2022/06/27 01:58:29;;;;;;;14.10;12.70;;;17.80;99.90;;;;;;5063244;28;20067;-63
2022/06/27 02:00:55;;;;;;;15.27;13.43;;;17.70;99.90;;;;;;5056985;28;20041;-64
2022/06/27 02:03:23;;;;;;;17.45;14.57;;;17.80;99.90;;;;;;5042828;28;20057;-63
2022/06/27 02:05:52;;;;;;;16.50;13.88;;;17.80;99.90;;;;;;5077558;28;20048;-63
2022/06/27 02:08:22;;;;;;;15.57;13.40;;;17.90;99.90;;;;;;5063046;28;20397;-64
2022/06/27 02:10:48;;;;;;;16.08;14.18;;;17.80;99.90;;;;;;5048184;28;20071;-63
2022/06/27 02:13:14;;;;;;;14.45;12.98;;;17.90;99.90;;;;;;5049870;28;20527;-64
2022/06/27 02:16:07;;;;;;;16.23;13.38;;;17.90;99.90;;;;;;5071208;28;20076;-64
2022/06/27 02:18:33;;;;;;;14.48;13.02;;;18.00;99.90;;;;;;5042101;28;20570;-63
2022/06/27 02:21:00;;;;;;;16.77;13.43;;;17.90;99.90;;;;;;5065507;28;20047;-63
2022/06/27 02:23:26;;;;;;;20.27;15.00;;;17.90;99.90;;;;;;5059744;28;20497;-63
2022/06/27 02:25:53;;;;;;;18.63;14.35;;;17.80;99.90;;;;;;5046244;28;20123;-63
2022/06/27 02:28:22;;;;;;;16.77;15.18;;;17.90;99.90;;;;;;5045631;28;20060;-63
2022/06/27 02:30:47;;;;;;;17.50;15.50;;;17.90;99.90;;;;;;5060921;28;20424;-63
2022/06/27 02:33:13;;;;;;;19.08;15.15;;;17.90;99.90;;;;;;5043140;28;20046;-64
2022/06/27 02:35:40;;;;;;;21.30;14.65;;;18.00;99.90;;;;;;5060571;28;20055;-64
2022/06/27 02:38:11;;;;;;;19.48;17.23;;;18.00;99.90;;;;;;5069711;28;20041;-64
2022/06/27 02:40:44;;;;;;;19.90;16.80;;;18.00;99.90;;;;;;5058074;28;20048;-64
2022/06/27 02:43:13;;;;;;;24.10;17.85;;;18.00;99.90;;;;;;5056444;28;20036;-64
2022/06/27 02:45:39;;;;;;;18.88;16.88;;;18.00;99.90;;;;;;5047677;28;20072;-64
2022/06/27 02:48:08;;;;;;;20.23;17.00;;;17.80;99.90;;;;;;5045463;28;20050;-63
2022/06/27 02:50:38;;;;;;;19.85;16.35;;;17.70;99.90;;;;;;5046299;28;20124;-64
2022/06/27 02:53:09;;;;;;;19.40;16.67;;;17.80;99.90;;;;;;5048429;28;20076;-63
2022/06/27 02:55:39;;;;;;;15.48;13.82;;;17.80;99.90;;;;;;5048318;28;20067;-63
2022/06/27 02:58:19;;;;;;;15.82;13.05;;;17.70;99.90;;;;;;5067007;28;20122;-64
2022/06/27 03:00:48;;;;;;;;;;;17.70;99.90;;;;;;5048560;28;20438;-63
2022/06/27 03:03:16;;;;;;;15.85;12.70;;;17.60;99.90;;;;;;5062370;28;19920;-63
2022/06/27 03:05:59;;;;;;;15.48;12.77;;;17.70;99.90;;;;;;5064812;28;20048;-63
2022/06/27 03:08:25;;;;;;;13.82;12.32;;;17.60;99.90;;;;;;5043562;28;20108;-63
2022/06/27 03:10:51;;;;;;;16.63;12.27;;;17.70;99.90;;;;;;5062695;28;20084;-64
2022/06/27 03:13:17;;;;;;;15.00;13.02;;;17.70;99.90;;;;;;5059550;28;20079;-64
2022/06/27 03:15:43;;;;;;;14.13;12.43;;;17.60;99.90;;;;;;5063767;28;20052;-64
2022/06/27 03:18:13;;;;;;;13.95;12.50;;;17.70;99.90;;;;;;5038996;28;20115;-64
2022/06/27 03:20:39;;;;;;;16.75;14.95;;;17.60;99.90;;;;;;5049712;28;20048;-64
2022/06/27 03:23:05;;;;;;;15.45;13.20;;;17.60;99.90;;;;;;5057727;28;20067;-64
2022/06/27 03:25:31;;;;;;;13.63;12.32;;;17.60;99.90;;;;;;5036980;28;20041;-64
2022/06/27 03:27:56;;;;;;;16.20;14.30;;;17.60;99.90;;;;;;5054130;28;20594;-64
2022/06/27 03:30:22;;;;;;;17.42;14.35;;;17.70;99.90;;;;;;5071327;28;20428;-64
2022/06/27 03:32:48;;;;;;;15.05;13.45;;;17.50;99.90;;;;;;5061664;28;20085;-64
2022/06/27 03:35:13;;;;;;;13.65;12.23;;;17.70;99.90;;;;;;5061877;28;20120;-64
2022/06/27 03:37:39;;;;;;;11.20;10.10;;;17.70;99.90;;;;;;5058396;28;20040;-64
2022/06/27 03:40:05;;;;;;;9.27;8.38;;;17.50;99.90;;;;;;5030902;28;20037;-64
2022/06/27 03:42:31;;;;;;;8.50;7.70;;;17.50;99.90;;;;;;5061586;28;20103;-64
2022/06/27 03:44:56;;;;;;;7.63;6.82;;;17.50;99.90;;;;;;5061180;28;20112;-64
2022/06/27 03:47:22;;;;;;;6.75;6.07;;;17.50;99.90;;;;;;5046398;28;20052;-64
2022/06/27 03:50:00;;;;;;;7.57;6.80;;;17.40;99.90;;;;;;5059136;28;20056;-64
2022/06/27 03:52:25;;;;;;;7.90;6.15;;;17.40;99.90;;;;;;5065590;28;20481;-64
2022/06/27 03:54:51;;;;;;;7.53;6.82;;;17.40;99.90;;;;;;5050370;28;20070;-64
2022/06/27 03:57:17;;;;;;;6.40;5.80;;;17.40;99.90;;;;;;5050361;28;20056;-64
2022/06/27 03:59:43;;;;;;;7.03;5.88;;;17.30;99.90;;;;;;5047470;28;20049;-64
2022/06/27 04:02:09;;;;;;;8.57;6.10;;;17.30;99.90;;;;;;5064036;28;20049;-64
2022/06/27 04:04:35;;;;;;;6.20;5.60;;;17.20;99.90;;;;;;5046213;28;20049;-64
2022/06/27 04:07:02;;;;;;;6.50;5.28;;;17.10;99.90;;;;;;5053017;28;20048;-64
2022/06/27 04:09:29;;;;;;;5.93;5.00;;;17.10;99.90;;;;;;5059528;28;20498;-64
2022/06/27 04:11:55;;;;;;;6.03;4.63;;;17.10;99.90;;;;;;5046256;28;20069;-65
2022/06/27 04:14:21;;;;;;;4.85;4.15;;;17.20;99.90;;;;;;5075696;28;20039;-64
2022/06/27 04:16:46;;;;;;;5.78;5.13;;;17.10;99.90;;;;;;5055003;28;20108;-64
2022/06/27 04:19:12;;;;;;;8.25;4.95;;;17.00;99.90;;;;;;5049293;28;20104;-64
2022/06/27 04:21:38;;;;;;;6.35;4.78;;;17.00;99.90;;;;;;5048445;28;20049;-64
2022/06/27 04:24:04;;;;;;;5.38;4.25;;;17.00;99.90;;;;;;5054874;28;20084;-64
2022/06/27 04:26:30;;;;;;;6.32;4.63;;;16.90;99.90;;;;;;5045976;28;20057;-64
2022/06/27 04:28:56;;;;;;;5.38;3.88;;;16.90;99.90;;;;;;5043997;28;20045;-64
2022/06/27 04:31:23;;;;;;;4.35;3.95;;;16.90;99.90;;;;;;5052202;28;20064;-64
2022/06/27 04:33:48;;;;;;;4.13;3.58;;;16.90;99.90;;;;;;5056013;28;20105;-64
2022/06/27 04:36:14;;;;;;;6.55;4.10;;;16.80;99.90;;;;;;5042608;28;20081;-64
2022/06/27 04:38:40;;;;;;;4.90;3.80;;;16.90;99.90;;;;;;5064301;28;20105;-64
2022/06/27 04:41:06;;;;;;;4.25;3.47;;;16.80;99.90;;;;;;5076606;28;20548;-63
2022/06/27 04:43:35;;;;;;;3.42;3.13;;;16.90;99.90;;;;;;5052918;28;20064;-63
2022/06/27 04:46:05;;;;;;;4.20;3.40;;;16.80;99.90;;;;;;5064633;28;20053;-63
2022/06/27 04:48:32;;;;;;;5.97;3.70;;;16.80;99.90;;;;;;5067764;28;20110;-63
2022/06/27 04:50:59;;;;;;;5.97;3.78;;;16.70;99.90;;;;;;5067946;28;20060;-62
2022/06/27 04:53:24;;;;;;;6.53;5.95;;;16.80;99.90;;;;;;5009484;28;20059;-64
2022/06/27 04:55:50;;;;;;;4.95;4.05;;;16.70;99.90;;;;;;5034185;28;20084;-65
2022/06/27 04:58:16;;;;;;;5.53;4.10;;;16.70;99.90;;;;;;5062142;28;20044;-64
2022/06/27 05:00:42;;;;;;;7.45;4.57;;;16.70;99.90;;;;;;5032836;28;20064;-63
2022/06/27 05:03:08;;;;;;;5.40;4.75;;;16.80;99.90;;;;;;5041516;28;20049;-62
2022/06/27 05:05:34;;;;;;;5.15;4.20;;;16.70;99.90;;;;;;5045562;28;20123;-63
2022/06/27 05:08:01;;;;;;;5.43;4.45;;;16.80;99.90;;;;;;5020314;28;20045;-66
2022/06/27 05:10:28;;;;;;;4.55;4.05;;;16.80;99.90;;;;;;5024028;28;20433;-63
2022/06/27 05:12:54;;;;;;;4.53;3.85;;;16.80;99.90;;;;;;5049600;28;20108;-64
2022/06/27 05:15:20;;;;;;;5.38;4.43;;;16.70;99.90;;;;;;5030000;28;20052;-64
2022/06/27 05:17:45;;;;;;;4.65;4.13;;;16.70;99.90;;;;;;5041413;28;20087;-63
2022/06/27 05:20:12;;;;;;;3.92;3.30;;;16.80;99.90;;;;;;5046927;28;20139;-64
2022/06/27 05:22:38;;;;;;;4.70;4.00;;;16.80;99.90;;;;;;5039628;28;20044;-65
2022/06/27 05:25:05;;;;;;;4.15;3.75;;;16.80;99.90;;;;;;5047591;28;20061;-63
2022/06/27 05:27:31;;;;;;;4.60;3.70;;;16.80;99.90;;;;;;5033373;28;20080;-63
2022/06/27 05:29:56;;;;;;;4.25;3.60;;;16.80;99.90;;;;;;5031487;28;20088;-63
2022/06/27 05:32:22;;;;;;;4.30;3.88;;;16.90;99.90;;;;;;5058447;28;20053;-63
2022/06/27 05:34:48;;;;;;;4.80;4.20;;;16.90;99.90;;;;;;5048974;28;20041;-63
2022/06/27 05:37:14;;;;;;;4.82;4.40;;;16.80;99.90;;;;;;5041818;28;20056;-62
2022/06/27 05:39:43;;;;;;;4.45;4.05;;;17.00;99.90;;;;;;5031737;28;20045;-63
2022/06/27 05:42:09;;;;;;;4.55;3.95;;;16.90;99.90;;;;;;5055072;28;20060;-62
2022/06/27 05:44:35;;;;;;;4.47;4.07;;;16.90;99.90;;;;;;5039174;28;20056;-64
2022/06/27 05:47:00;;;;;;;4.28;3.88;;;17.00;99.90;;;;;;5036005;28;20053;-62
2022/06/27 05:49:27;;;;;;;6.93;4.10;;;16.90;99.90;;;;;;5057703;28;20104;-62
2022/06/27 05:51:57;;;;;;;4.57;4.18;;;17.00;99.90;;;;;;5028247;28;20195;-62
2022/06/27 05:54:24;;;;;;;5.88;4.20;;;17.10;99.90;;;;;;5034728;28;20493;-62
2022/06/27 05:56:50;;;;;;;4.05;3.75;;;17.10;99.90;;;;;;5027852;28;20072;-62
2022/06/27 05:59:17;;;;;;;4.30;3.92;;;17.10;99.90;;;;;;5044606;28;20550;-62
2022/06/27 06:01:45;;;;;;;3.60;3.30;;;17.10;99.90;;;;;;5027236;28;20057;-62
2022/06/27 06:04:12;;;;;;;4.67;3.97;;;17.20;99.90;;;;;;5041348;28;20092;-63
2022/06/27 06:06:38;;;;;;;4.60;4.05;;;17.20;99.90;;;;;;5030910;28;20053;-64
2022/06/27 06:09:05;;;;;;;4.43;4.03;;;17.20;99.90;;;;;;5055669;28;20575;-64
2022/06/27 06:11:31;;;;;;;4.78;4.28;;;17.20;99.90;;;;;;5047051;28;20061;-64
2022/06/27 06:13:58;;;;;;;4.93;4.53;;;17.30;99.90;;;;;;5039398;28;20052;-64
2022/06/27 06:16:24;;;;;;;4.68;4.22;;;17.30;99.90;;;;;;5026052;28;20128;-64
2022/06/27 06:18:52;;;;;;;4.70;4.20;;;17.30;99.90;;;;;;5016657;28;20236;-64
2022/06/27 06:21:19;;;;;;;4.47;4.07;;;17.30;99.90;;;;;;5029804;28;20045;-64
2022/06/27 06:23:46;;;;;;;4.38;4.07;;;17.30;99.90;;;;;;5042799;28;20033;-64
2022/06/27 06:26:14;;;;;;;4.78;4.38;;;17.30;99.90;;;;;;5029596;28;20049;-64
2022/06/27 06:28:40;;;;;;;5.05;4.05;;;17.30;99.90;;;;;;5042050;28;20051;-64
2022/06/27 06:31:07;;;;;;;4.53;4.13;;;17.20;99.90;;;;;;5040786;28;20056;-64
2022/06/27 06:33:33;;;;;;;4.50;4.10;;;17.20;99.90;;;;;;5055352;28;20174;-64
2022/06/27 06:35:58;;;;;;;4.55;4.15;;;17.20;99.90;;;;;;5031932;28;20084;-64
2022/06/27 06:38:25;;;;;;;4.10;3.55;;;17.30;99.90;;;;;;5037243;28;20041;-64
2022/06/27 06:40:50;;;;;;;4.50;4.10;;;17.30;99.90;;;;;;5034358;28;20109;-64
2022/06/27 06:43:17;;;;;;;4.68;4.28;;;17.30;99.90;;;;;;5033982;28;20076;-65
2022/06/27 06:45:43;;;;;;;4.65;4.13;;;17.20;99.90;;;;;;5047662;28;20052;-64
2022/06/27 06:48:09;;;;;;;4.50;4.10;;;17.20;99.90;;;;;;5041648;28;20058;-64
2022/06/27 06:50:35;;;;;;;4.63;4.22;;;17.30;99.90;;;;;;5023558;28;20136;-64
2022/06/27 06:53:01;;;;;;;4.60;4.00;;;17.30;99.90;;;;;;5027055;28;20099;-64
2022/06/27 06:55:27;;;;;;;4.40;4.00;;;17.40;99.90;;;;;;5033496;28;20052;-64
2022/06/27 06:57:56;;;;;;;5.13;4.70;;;17.40;99.90;;;;;;5036614;28;20552;-64
2022/06/27 07:00:22;;;;;;;5.25;4.60;;;17.60;99.90;;;;;;5028608;28;20056;-64
2022/06/27 07:02:48;;;;;;;4.80;4.28;;;17.50;99.90;;;;;;5050368;28;20083;-64
2022/06/27 07:05:16;;;;;;;4.85;4.07;;;17.50;99.90;;;;;;5047242;28;20121;-64
2022/06/27 07:07:42;;;;;;;6.30;4.18;;;17.40;99.90;;;;;;5054053;28;20059;-64
2022/06/27 07:10:09;;;;;;;4.13;3.80;;;17.50;99.90;;;;;;5027761;28;20045;-64
2022/06/27 07:12:36;;;;;;;4.28;3.88;;;17.50;99.90;;;;;;5041526;28;20053;-64
2022/06/27 07:15:05;;;;;;;4.13;3.75;;;17.50;99.90;;;;;;5048009;28;20037;-64
2022/06/27 07:17:56;;;;;;;5.00;4.07;;;17.50;99.90;;;;;;5037735;28;20045;-64
2022/06/27 07:20:22;;;;;;;4.68;4.07;;;17.50;99.90;;;;;;5029102;28;20048;-64
2022/06/27 07:22:49;;;;;;;5.25;4.00;;;17.40;99.90;;;;;;5039898;28;20056;-64
2022/06/27 07:25:16;;;;;;;5.88;4.35;;;17.50;99.90;;;;;;5047135;28;20094;-64
2022/06/27 07:27:42;;;;;;;5.93;4.55;;;17.40;99.90;;;;;;5055941;28;20556;-64
2022/06/27 07:30:09;;;;;;;5.20;4.70;;;17.40;99.90;;;;;;5029371;28;20041;-64
2022/06/27 07:32:36;;;;;;;6.00;4.50;;;17.40;99.90;;;;;;5051317;28;20045;-64
2022/06/27 07:35:03;;;;;;;5.10;4.65;;;17.40;99.90;;;;;;5042375;28;20075;-65
2022/06/27 07:37:29;;;;;;;5.05;4.55;;;17.40;99.90;;;;;;5024366;28;20049;-64
2022/06/27 07:39:55;;;;;;;5.13;4.63;;;17.20;99.90;;;;;;5036793;28;20132;-64
2022/06/27 07:42:21;;;;;;;5.25;4.57;;;17.30;99.90;;;;;;5043989;28;20064;-64
2022/06/27 07:44:48;;;;;;;5.07;4.40;;;17.30;99.90;;;;;;5057061;28;20373;-64
2022/06/27 07:47:14;;;;;;;5.57;4.65;;;17.40;99.90;;;;;;5041364;28;20068;-64
2022/06/27 07:49:39;;;;;;;5.22;4.70;;;17.30;99.90;;;;;;5038585;28;20071;-63
2022/06/27 07:52:06;;;;;;;6.30;5.40;;;17.30;99.90;;;;;;5027919;28;20061;-64
2022/06/27 07:54:32;;;;;;;5.85;5.05;;;17.40;99.90;;;;;;5033405;28;20539;-64
2022/06/27 07:56:58;;;;;;;7.35;5.40;;;17.50;99.90;;;;;;5024228;28;20107;-64
2022/06/27 07:59:25;;;;;;;6.20;5.18;;;17.60;99.90;;;;;;5044725;28;20045;-64
2022/06/27 08:01:52;;;;;;;5.93;4.90;;;17.70;99.90;;;;;;5043706;28;20059;-64
2022/06/27 08:04:18;;;;;;;5.47;4.97;;;17.70;99.90;;;;;;5039722;28;20044;-64
2022/06/27 08:06:49;;;;;;;6.13;4.85;;;17.90;99.90;;;;;;5032960;28;20048;-64
2022/06/27 08:09:18;;;;;;;5.43;4.97;;;17.90;99.90;;;;;;5041577;28;20091;-64
2022/06/27 08:11:44;;;;;;;5.47;4.97;;;17.90;99.90;;;;;;5024568;28;20076;-64
2022/06/27 08:14:16;;;;;;;5.47;4.97;;;18.10;99.90;;;;;;5057804;28;20053;-64
2022/06/27 08:16:43;;;;;;;5.55;5.05;;;18.10;99.90;;;;;;5033166;28;20053;-64
2022/06/27 08:19:10;;;;;;;5.53;4.90;;;18.30;99.90;;;;;;5039475;28;20032;-64
2022/06/27 08:21:37;;;;;;;5.03;4.53;;;18.20;99.90;;;;;;5047827;28;20049;-64
2022/06/27 08:24:07;;;;;;;5.47;4.97;;;18.20;99.90;;;;;;5041017;28;20360;-64
2022/06/27 08:26:35;;;;;;;5.78;4.75;;;18.20;99.90;;;;;;5033197;28;20079;-64
2022/06/27 08:29:05;;;;;;;5.07;4.68;;;18.40;99.90;;;;;;5060824;28;20075;-64
2022/06/27 08:31:32;;;;;;;6.10;4.50;;;18.40;99.90;;;;;;5030693;28;20107;-64
2022/06/27 08:34:01;;;;;;;5.35;4.85;;;18.50;99.90;;;;;;5059493;28;20032;-64
2022/06/27 08:36:30;;;;;;;6.10;5.50;;;18.50;99.90;;;;;;5032288;28;20057;-64
2022/06/27 08:38:59;;;;;;;5.68;5.18;;;18.60;99.90;;;;;;5048120;28;20060;-64
2022/06/27 08:41:26;;;;;;;5.93;5.43;;;18.60;99.90;;;;;;5025054;28;20073;-64
2022/06/27 08:44:00;;;;;;;6.10;5.55;;;18.70;99.90;;;;;;5039869;28;20049;-64
2022/06/27 08:46:30;;;;;;;6.07;5.47;;;18.60;99.90;;;;;;5025678;28;20052;-64
2022/06/27 08:48:57;;;;;;;6.43;5.93;;;18.80;99.90;;;;;;5040904;28;20456;-65
2022/06/27 08:51:23;;;;;;;6.53;5.93;;;18.70;99.90;;;;;;5031562;28;20568;-64
2022/06/27 08:53:53;;;;;;;6.45;5.85;;;18.70;99.90;;;;;;5011956;28;20132;-64
2022/06/27 08:56:19;;;;;;;;;;;18.60;99.90;;;;;;5048358;28;20071;-64
2022/06/27 08:58:46;;;;;;;7.40;6.70;;;18.40;99.90;;;;;;5039591;28;19924;-64
2022/06/27 09:01:18;;;;;;;6.80;6.20;;;18.40;99.90;;;;;;5029438;28;20045;-64
2022/06/27 09:04:00;;;;;;;7.15;6.55;;;18.30;99.90;;;;;;5042268;28;20097;-64
2022/06/27 09:06:27;;;;;;;7.25;6.65;;;18.40;99.90;;;;;;5044957;28;20120;-64
2022/06/27 09:09:13;;;;;;;7.03;6.43;;;18.30;99.90;;;;;;5047208;28;20056;-64
2022/06/27 09:11:41;;;;;;;7.30;6.60;;;18.20;99.90;;;;;;5033284;28;20056;-64
2022/06/27 09:14:37;;;;;;;7.25;6.55;;;18.40;99.90;;;;;;5040095;28;20060;-64
2022/06/27 09:17:12;;;;;;;7.75;7.05;;;18.30;99.90;;;;;;5021812;28;20552;-64
2022/06/27 09:19:52;;;;;;;6.90;6.30;;;18.30;99.90;;;;;;5039292;28;20170;-64
2022/06/27 09:22:20;;;;;;;8.77;6.70;;;18.20;99.90;;;;;;5042084;28;20060;-64
2022/06/27 09:25:19;;;;;;;7.22;6.40;;;18.20;99.90;;;;;;5039036;28;20159;-64
2022/06/27 09:27:50;;;;;;;6.40;5.90;;;18.20;99.90;;;;;;5042152;28;20428;-64
2022/06/27 09:30:19;;;;;;;7.20;6.55;;;18.20;99.90;;;;;;5058026;28;20040;-64
2022/06/27 09:32:46;;;;;;;7.30;6.60;;;18.10;99.90;;;;;;5031684;28;20304;-64
2022/06/27 09:35:30;;;;;;;6.97;6.28;;;18.10;99.90;;;;;;5041714;28;20094;-64
2022/06/27 09:38:04;;;;;;;7.47;6.50;;;18.00;99.90;;;;;;5016021;28;20044;-64
2022/06/27 09:40:33;;;;;;;6.65;6.05;;;18.20;99.90;;;;;;5028439;28;20049;-64
2022/06/27 09:42:59;;;;;;;6.97;6.07;;;18.10;99.90;;;;;;5029739;28;20051;-64
2022/06/27 09:45:28;;;;;;;6.70;6.10;;;18.10;99.90;;;;;;5024437;28;20071;-64
2022/06/27 09:48:01;;;;;;;6.32;5.68;;;18.10;99.90;;;;;;5015835;28;20143;-64
2022/06/27 09:50:29;;;;;;;6.80;6.10;;;18.10;99.90;;;;;;5047083;28;20524;-64
2022/06/27 09:52:56;;;;;;;6.55;6.03;;;18.20;99.90;;;;;;5007463;28;20098;-68
2022/06/27 09:55:25;;;;;;;6.53;5.93;;;18.10;99.90;;;;;;5046444;28;20045;-64
2022/06/27 09:57:53;;;;;;;5.93;5.32;;;18.10;99.90;;;;;;5047731;28;20055;-64
2022/06/27 10:00:20;;;;;;;6.38;5.88;;;18.10;99.90;;;;;;5036436;28;20057;-64
2022/06/27 10:02:47;;;;;;;6.40;5.80;;;18.10;99.90;;;;;;5040580;28;20052;-64
2022/06/27 10:05:18;;;;;;;7.20;6.50;;;18.20;99.90;;;;;;5042878;28;20037;-64
2022/06/27 10:07:55;;;;;;;7.68;5.85;;;18.20;99.90;;;;;;5028180;28;20052;-64
2022/06/27 10:10:21;;;;;;;7.18;6.57;;;18.20;99.90;;;;;;5062418;28;20051;-64
2022/06/27 10:13:03;;;;;;;6.13;5.50;;;18.40;99.90;;;;;;5045216;28;20350;-64
2022/06/27 10:15:32;;;;;;;7.57;6.57;;;18.40;99.90;;;;;;5056657;28;20590;-64
2022/06/27 10:18:01;;;;;;;7.13;6.43;;;18.60;99.90;;;;;;5022694;28;20037;-64
2022/06/27 10:20:29;;;;;;;6.80;6.20;;;18.60;99.90;;;;;;5055461;28;20097;-64
2022/06/27 10:23:04;;;;;;;7.18;6.50;;;18.80;99.90;;;;;;5047313;28;20063;-64
2022/06/27 10:25:29;;;;;;;6.50;6.00;;;18.90;99.90;;;;;;5065860;28;20040;-64
2022/06/27 10:28:11;;;;;;;6.57;5.95;;;18.80;99.90;;;;;;5009570;28;20041;-64
2022/06/27 10:30:38;;;;;;;7.50;6.07;;;18.80;99.90;;;;;;5057974;28;20075;-64
2022/06/27 10:33:25;;;;;;;6.15;5.60;;;18.80;99.90;;;;;;5029339;28;20045;-65
2022/06/27 10:36:02;;;;;;;6.13;5.63;;;18.90;99.90;;;;;;5044670;28;20077;-64
2022/06/27 10:38:45;;;;;;;7.72;7.03;;;18.90;99.90;;;;;;5057001;28;20068;-64
2022/06/27 10:41:30;;;;;;;7.10;6.40;;;18.90;99.90;;;;;;5034065;28;20049;-64
2022/06/27 10:43:59;;;;;;;6.55;5.95;;;18.70;99.90;;;;;;5024042;28;20242;-64
2022/06/27 10:46:24;;;;;;;7.05;6.45;;;18.70;99.90;;;;;;5026216;28;20602;-64
2022/06/27 10:48:51;;;;;;;7.93;7.22;;;18.80;99.90;;;;;;5036398;28;20053;-64
2022/06/27 10:51:29;;;;;;;7.65;6.95;;;18.80;99.90;;;;;;5028664;28;20139;-64
2022/06/27 10:54:06;;;;;;;7.30;5.68;;;18.90;99.90;;;;;;5018084;28;20052;-64
2022/06/27 10:56:39;;;;;;;5.60;5.10;;;19.10;99.90;;;;;;5026403;28;20061;-64
2022/06/27 10:59:45;;;;;;;7.07;6.47;;;19.00;99.90;;;;;;5037104;28;20060;-64
2022/06/27 11:02:15;;;;;;;6.50;5.70;;;19.00;99.90;;;;;;4980186;28;20105;-64
2022/06/27 11:04:45;;;;;;;6.20;5.57;;;19.10;99.90;;;;;;5010808;28;20077;-62
2022/06/27 11:07:11;;;;;;;6.63;5.93;;;19.10;99.90;;;;;;4986679;28;20046;-62
2022/06/27 11:09:37;;;;;;;6.40;5.85;;;19.10;99.90;;;;;;5013077;28;20223;-62
2022/06/27 11:12:05;;;;;;;6.18;5.50;;;19.10;99.90;;;;;;4988747;28;20460;-62
2022/06/27 11:14:48;;;;;;;6.32;5.72;;;19.20;99.90;;;;;;4998791;28;20077;-62
2022/06/27 11:17:33;;;;;;;6.32;5.30;;;19.40;99.90;;;;;;5001695;28;20050;-62
2022/06/27 11:20:14;;;;;;;6.95;6.30;;;19.40;99.90;;;;;;4993648;28;20058;-62
2022/06/27 11:22:49;;;;;;;6.50;5.80;;;19.40;99.90;;;;;;4986087;28;20542;-62
2022/06/27 11:25:18;;;;;;;8.05;6.20;;;19.50;99.90;;;;;;4996287;28;20509;-62
2022/06/27 11:27:53;;;;;;;5.67;5.17;;;19.40;99.90;;;;;;4987606;28;20073;-62
2022/06/27 11:33:25;;;;;;;5.60;5.10;;;19.30;99.90;;;;;;4969669;28;20099;-62
2022/06/27 11:35:52;;;;;;;5.47;4.97;;;19.40;99.90;;;;;;4983801;28;20581;-62
2022/06/27 11:38:29;;;;;;;7.50;5.35;;;19.30;99.90;;;;;;4993393;28;20080;-62
2022/06/27 11:41:10;;;;;;;6.22;5.63;;;19.40;99.90;;;;;;5014527;28;20052;-63
2022/06/27 11:44:07;;;;;;;6.05;5.45;;;19.40;99.90;;;;;;5019757;28;20063;-62
2022/06/27 11:46:39;;;;;;;5.43;4.93;;;19.50;99.90;;;;;;4996256;28;20050;-62
2022/06/27 11:49:06;;;;;;;4.60;4.20;;;19.60;99.90;;;;;;5046960;28;20048;-62
2022/06/27 11:51:40;;;;;;;6.47;5.30;;;19.50;99.90;;;;;;5024202;28;20467;-62
2022/06/27 11:54:09;;;;;;;4.57;4.18;;;19.40;99.90;;;;;;4999907;28;20061;-62
2022/06/27 11:56:40;;;;;;;5.27;4.77;;;19.40;99.90;;;;;;5008502;28;20051;-62
2022/06/27 11:59:09;;;;;;;5.40;4.90;;;19.40;99.90;;;;;;5028046;28;20193;-62
2022/06/27 12:01:58;;;;;;;6.00;5.37;;;19.30;99.90;;;;;;5009434;28;20120;-62
2022/06/27 12:04:24;;;;;;;5.63;5.10;;;19.40;99.90;;;;;;5029230;28;20867;-62
2022/06/27 12:06:55;;;;;;;7.03;4.32;;;19.40;99.90;;;;;;5023972;28;20131;-62
2022/06/27 12:09:23;;;;;;;6.97;4.00;;;19.30;99.90;;;;;;5007080;28;20046;-63
2022/06/27 12:11:59;;;;;;;4.93;3.97;;;19.40;99.90;;;;;;4996925;28;20354;-62
2022/06/27 12:14:25;;;;;;;4.78;4.28;;;19.40;99.90;;;;;;5024082;28;20061;-62
2022/06/27 12:16:54;;;;;;;7.88;3.95;;;19.50;99.90;;;;;;5023538;28;20059;-62
2022/06/27 12:19:20;;;;;;;4.70;3.92;;;19.40;99.90;;;;;;5035692;28;20049;-63
2022/06/27 12:21:47;;;;;;;4.40;4.00;;;19.50;99.90;;;;;;5044702;28;20492;-62
2022/06/27 12:24:13;;;;;;;4.70;4.30;;;19.50;99.90;;;;;;5037718;28;20049;-62
2022/06/27 12:26:39;;;;;;;4.47;4.07;;;19.60;99.90;;;;;;5014362;28;20512;-62
2022/06/27 12:29:06;;;;;;;7.20;4.30;;;19.60;99.90;;;;;;5038777;28;20078;-62
2022/06/27 12:31:33;;;;;;;4.07;3.67;;;19.70;99.90;;;;;;5021298;28;20188;-62
2022/06/27 12:33:59;;;;;;;6.80;3.90;;;19.70;99.90;;;;;;5052361;28;20581;-63
2022/06/27 12:36:25;;;;;;;4.40;4.00;;;19.70;99.90;;;;;;5023168;28;20073;-63
2022/06/27 12:38:51;;;;;;;4.40;3.75;;;19.80;99.90;;;;;;5026179;28;20042;-63
2022/06/27 12:41:16;;;;;;;4.13;3.70;;;19.70;99.90;;;;;;5018660;28;20576;-62
2022/06/27 12:43:45;;;;;;;4.47;3.90;;;19.70;99.90;;;;;;5032063;28;20046;-62
2022/06/27 12:46:12;;;;;;;5.18;3.72;;;19.70;99.90;;;;;;5027472;28;20045;-62
2022/06/27 12:48:38;;;;;;;4.32;3.90;;;19.70;99.90;;;;;;5011357;28;20050;-62
2022/06/27 12:51:06;;;;;;;3.83;3.50;;;19.60;99.90;;;;;;5016526;28;20060;-66
2022/06/27 12:53:33;;;;;;;3.97;3.53;;;19.60;99.90;;;;;;5040714;28;20064;-62
2022/06/27 12:55:59;;;;;;;3.95;3.60;;;19.70;99.90;;;;;;5044793;28;20041;-62